Pagrindinis puslapis
METAR-TAF:

METAR-TAF

Oro uostai :

Gachsaran, Iranas

platuma: 30-26N, ilguma: 050-46E, Aukštis: 738 m

Dabartinis oras

Ataskaita buvo paskelbta 1 valandą ir 5 minutes, ne 02:00 UTC
Ramus vėjas
Temperatūra 24°C
Drėgmė 29%
Slėgis 1003 hPa
Matomumas: 8000 m

METAR: OIAH 170200Z 00000KT 8000 NSC 24/05 Q1003

Laikas: 07:35 (03:05 UTC)


TAF: trūkstamas

Orai ataskaitas ir orų prognozės (METAR, TAF).

turimą stotys yra geltonos ir raudonos taškus žemėlapyje.

Perkelti pele per norėdami pamatyti stoties vardą.

Tada spustelėkite, norėdami matyti oro stebėjimo ir prognozės.

Norėdami pakeisti žemėlapį: spustelėkite ant žalios mygtukų su juodo kryžiaus žemyn,; žalią mygtuką su brūkšneliu, jei norite nutolinti; arba žalių rodyklių gretimoms žemėlapius.


METAR-TAF: